Jeff Kindl — WDI5759 — position and weather

sailwx.info

Track history (hours):
 
Tides and Currents Weather Stations Pressure Air Temp Water Temp Dewpoint Dewpoint Depression Visibility Wind Speed Wind Dir Waves Ship Positions

Jeff Kindl

Owner: American Commercial Lines LLC, Jeffersonville, IN. More information available from US FCC via Universal Licensing System and Coast Guard Vessel Documentation Center.

Last reported at 2017-Aug-28 14:19 UTC. Time now 2017-Sep-20 00:09 UTC.
Position N 32°47' W 091°09'.
Warning: this ship's position is 22 days out of date.

Length 27 m; draft 2.8 m.

Type: Tow > 200 m length. MMSI: 367711840.

Date/timePositionNaut miles runAvg speedWind from/ knotsBaromVisibWave heightAir tempDewpointWater temp
2017-Aug-28 14:19N 32°47' W 091°09'2 6.1
2017-Aug-28 13:58N 32°45' W 091°09'5 4.2
2017-Aug-28 12:44N 32°43' W 091°03'2 2.3
2017-Aug-28 11:59N 32°42' W 091°04'3 5.3
2017-Aug-28 11:27N 32°40' W 091°07'2 4.3
2017-Aug-28 11:00N 32°39' W 091°09'3 5.1
2017-Aug-28 10:30N 32°37' W 091°09'3 5.5
2017-Aug-28 10:00N 32°35' W 091°07'3 5.1
2017-Aug-28 09:30N 32°32' W 091°06'3 5.1
2017-Aug-28 09:00N 32°30' W 091°07'3 5.4
2017-Aug-28 08:30N 32°27' W 091°06'3 5.7
2017-Aug-28 08:00N 32°26' W 091°03'2 4.7
2017-Aug-28 07:30N 32°25' W 090°60'2 4.1
2017-Aug-28 07:00N 32°23' W 090°60'2 4.5
2017-Aug-28 06:30N 32°21' W 090°59'3 6.4
2017-Aug-28 06:00N 32°21' W 090°55'2 4.3
2017-Aug-28 05:30N 32°19' W 090°55'3 6.7
2017-Aug-28 05:00N 32°16' W 090°58'3 5.7
2017-Aug-28 04:30N 32°14' W 090°59'3 6.4
2017-Aug-28 04:00N 32°11' W 090°60'3 5.8
2017-Aug-28 03:30N 32°08' W 091°01'5 5.7
2017-Aug-28 02:42N 32°08' W 091°06'1 4.7
2017-Aug-28 02:30N 32°07' W 091°07'  
2017-Aug-25 18:59N 29°50' W 091°57'3 5.9
2017-Aug-25 18:30N 29°50' W 092°00'3 6.1
2017-Aug-25 18:00N 29°49' W 092°04'3 6.1
2017-Aug-25 17:30N 29°47' W 092°07'3 5.7
2017-Aug-25 17:00N 29°47' W 092°10'2 4.3
2017-Aug-25 16:30N 29°47' W 092°12'1 1.3
2017-Aug-25 16:00N 29°47' W 092°13'1 1.8
2017-Aug-25 15:30N 29°48' W 092°14'3 5.2
2017-Aug-25 15:00N 29°49' W 092°17'36 4.9
2017-Aug-25 07:33N 29°56' W 092°58'3 3.4
2017-Aug-25 06:41N 29°56' W 093°01'1 3.7
2017-Aug-25 06:21N 29°56' W 093°03'2 5.0
2017-Aug-25 06:00N 29°56' W 093°05'2 4.7
2017-Aug-25 05:30N 29°56' W 093°08'2 4.8
2017-Aug-25 05:00N 29°57' W 093°10'2 4.3
2017-Aug-25 04:30N 29°58' W 093°12'2 4.9
2017-Aug-25 04:00N 30°00' W 093°14'2 4.5
2017-Aug-25 03:30N 30°02' W 093°15'2 4.6
2017-Aug-25 03:00N 30°04' W 093°16'2 3.2
2017-Aug-25 02:30N 30°05' W 093°18'1 1.3
2017-Aug-25 02:00N 30°06' W 093°18'0 0.0
2017-Aug-25 01:30N 30°06' W 093°18'0 0.1
2017-Aug-25 01:00N 30°06' W 093°18'0 0.1
2017-Aug-25 00:30N 30°06' W 093°18'0 0.0
2017-Aug-25 00:00N 30°06' W 093°18'0 0.1
2017-Aug-24 23:30N 30°06' W 093°18'0 0.0
2017-Aug-24 23:00N 30°06' W 093°18'0 0.1
2017-Aug-24 22:30N 30°06' W 093°18'2 3.7
2017-Aug-24 22:00N 30°05' W 093°20'2 4.3
2017-Aug-24 21:30N 30°04' W 093°22'2 4.6
2017-Aug-24 21:00N 30°04' W 093°25'2 4.8
2017-Aug-24 20:30N 30°04' W 093°27'3 5.1
2017-Aug-24 20:00N 30°04' W 093°30'80 4.4
2017-Aug-24 01:55N 29°22' W 094°50'1 0.0
2017-Aug-22 09:42N 29°23' W 094°48'2 8.3
2017-Aug-22 09:29N 29°24' W 094°49'5 9.0
2017-Aug-22 08:54N 29°29' W 094°52'4 9.1
2017-Aug-22 08:30N 29°32' W 094°54'5 9.1
2017-Aug-22 08:00N 29°36' W 094°57'5 9.5
2017-Aug-22 07:30N 29°40' W 094°59'4 8.3
2017-Aug-22 06:59N 29°44' W 095°02'4 4.2
2017-Aug-22 06:02N 29°46' W 095°06'0 0.3
2017-Aug-22 06:00N 29°46' W 095°05'0 0.0
2017-Aug-22 03:53N 29°46' W 095°06'0 0.0
2017-Aug-22 03:30N 29°46' W 095°06'0 0.0
2017-Aug-22 02:58N 29°46' W 095°06'0 0.0
2017-Aug-22 02:24N 29°46' W 095°06'0 0.0
2017-Aug-22 01:25N 29°46' W 095°06'0 0.0
2017-Aug-22 01:00N 29°46' W 095°06'0 0.0
2017-Aug-22 00:25N 29°46' W 095°06'1 0.6
2017-Aug-21 23:21N 29°46' W 095°06'0 0.0
2017-Aug-21 22:50N 29°46' W 095°06'0 0.0
2017-Aug-21 20:19N 29°46' W 095°06'0 0.1
2017-Aug-21 20:00N 29°46' W 095°06'0 0.4
2017-Aug-21 18:53N 29°46' W 095°06'1 3.4
2017-Aug-21 18:28N 29°45' W 095°04'4 9.1
2017-Aug-21 18:00N 29°42' W 095°01'5 9.9
2017-Aug-21 17:30N 29°38' W 094°58'3 6.8
2017-Aug-21 17:00N 29°37' W 095°01'0 0.3
2017-Aug-21 16:30N 29°37' W 095°02'0 0.0
2017-Aug-21 16:00N 29°37' W 095°02'0 0.0
2017-Aug-21 15:30N 29°37' W 095°02'0 0.0
2017-Aug-21 15:00N 29°37' W 095°02'0 0.0
2017-Aug-21 14:30N 29°37' W 095°02'0 0.0
2017-Aug-21 14:00N 29°37' W 095°02'0 0.0
2017-Aug-21 13:30N 29°37' W 095°02'0 0.0
2017-Aug-21 13:00N 29°37' W 095°02'0 0.0
2017-Aug-21 12:30N 29°37' W 095°02'0 0.0
2017-Aug-21 12:00N 29°37' W 095°02'0 0.0
2017-Aug-21 11:30N 29°37' W 095°02'0 0.0
2017-Aug-21 11:00N 29°37' W 095°02'0 0.0
2017-Aug-21 10:30N 29°37' W 095°02'0 0.0
2017-Aug-21 10:00N 29°37' W 095°02'0 0.0
2017-Aug-21 09:30N 29°37' W 095°02'0 0.0
2017-Aug-21 09:00N 29°37' W 095°02'0 0.0
2017-Aug-21 08:30N 29°37' W 095°02'0 0.0
2017-Aug-21 08:00N 29°37' W 095°02'0 0.1
2017-Aug-21 07:30N 29°37' W 095°01'0 0.1
2017-Aug-21 07:00N 29°37' W 095°01'0 0.3
2017-Aug-21 06:30N 29°37' W 095°01'2 4.6
2017-Aug-21 06:00N 29°37' W 094°59'2 3.8
2017-Aug-21 05:30N 29°39' W 094°58'3 6.8
2017-Aug-21 05:00N 29°42' W 094°60'3 6.9
2017-Aug-21 04:30N 29°44' W 095°03'3 5.1
2017-Aug-21 03:54N 29°46' W 095°05'0 0.0
2017-Aug-21 03:27N 29°46' W 095°05'0 0.2
2017-Aug-21 03:00N 29°46' W 095°06'0 0.0
2017-Aug-21 02:30N 29°46' W 095°06'0 0.0
2017-Aug-21 02:00N 29°46' W 095°06'0 0.0
2017-Aug-21 01:30N 29°46' W 095°06'0 0.0
2017-Aug-21 01:00N 29°46' W 095°06'0 0.0
2017-Aug-21 00:30N 29°46' W 095°06'0 0.0
2017-Aug-21 00:00N 29°46' W 095°06'0 0.0
2017-Aug-20 23:30N 29°46' W 095°06'0 0.0
2017-Aug-20 23:00N 29°46' W 095°06'0 0.0
2017-Aug-20 22:30N 29°46' W 095°06'0 0.0
2017-Aug-20 22:00N 29°46' W 095°06'0 0.0
2017-Aug-20 21:26N 29°46' W 095°06'0 0.0
2017-Aug-20 21:00N 29°46' W 095°06'0 0.0
2017-Aug-20 20:30N 29°46' W 095°06'0 0.0
2017-Aug-20 19:59N 29°46' W 095°06'0 0.0
2017-Aug-20 19:30N 29°46' W 095°06'1 0.3
2017-Aug-20 17:14N 29°46' W 095°06'1 0.6
2017-Aug-20 15:55N 29°46' W 095°05'1 1.5
2017-Aug-20 15:26N 29°46' W 095°05'3 7.1
2017-Aug-20 14:58N 29°44' W 095°02'3 7.2
2017-Aug-20 14:30N 29°41' W 094°59'4 8.2
2017-Aug-20 14:00N 29°37' W 094°58'4 8.3
2017-Aug-20 13:30N 29°34' W 094°55'13 2.1
2017-Aug-20 07:09N 29°22' W 094°49'1 3.7
2017-Aug-20 06:54N 29°22' W 094°50'31 1.4
2017-Aug-19 08:20N 29°38' W 094°19'7 5.1
2017-Aug-19 07:02N 29°41' W 094°13'7 4.7
2017-Aug-19 05:32N 29°44' W 094°06'0 4.9
2017-Aug-19 05:30N 29°44' W 094°05'3 4.8
2017-Aug-19 04:57N 29°46' W 094°03'2 4.7
2017-Aug-19 04:25N 29°47' W 094°01'22 4.9
2017-Aug-18 23:57N 30°03' W 093°43'3 5.8
2017-Aug-18 23:30N 30°04' W 093°40'3 5.9
2017-Aug-18 23:00N 30°04' W 093°37'3 5.3
2017-Aug-18 22:30N 30°04' W 093°34'2 3.9
2017-Aug-18 22:00N 30°04' W 093°31'2 3.0
2017-Aug-18 21:30N 30°04' W 093°30'2 4.8
2017-Aug-18 21:00N 30°04' W 093°27'2 4.8
2017-Aug-18 20:30N 30°04' W 093°24'3 5.2
2017-Aug-18 20:00N 30°04' W 093°21'2 4.8
2017-Aug-18 19:30N 30°06' W 093°19'1 2.1
2017-Aug-18 19:00N 30°06' W 093°18'1 2.5
2017-Aug-18 18:30N 30°05' W 093°17'3 5.1
2017-Aug-18 18:00N 30°03' W 093°16'2 5.0
2017-Aug-18 17:30N 30°01' W 093°14'3 5.4
2017-Aug-18 17:00N 29°59' W 093°12'4 5.5
2017-Aug-18 16:20N 29°56' W 093°09'  
Track history (hours):
 
Tides and Currents Weather Stations Pressure Air Temp Water Temp Dewpoint Dewpoint Depression Visibility Wind Speed Wind Dir Waves Ship Positions

Jeff Kindl

Owner: American Commercial Lines LLC, Jeffersonville, IN. More information available from US FCC via Universal Licensing System and Coast Guard Vessel Documentation Center.

Last reported at 2017-Aug-28 14:19 UTC. Time now 2017-Sep-20 00:09 UTC.
Position N 32°47' W 091°09'.
Warning: this ship's position is 22 days out of date.

Length 27 m; draft 2.8 m.

Type: Tow > 200 m length. MMSI: 367711840.

Date/timePositionNaut miles runAvg speedWind from/ knotsBaromVisibWave heightAir tempDewpointWater temp
2017-Aug-28 14:19N 32°47' W 091°09'2 6.1
2017-Aug-28 13:58N 32°45' W 091°09'5 4.2
2017-Aug-28 12:44N 32°43' W 091°03'2 2.3
2017-Aug-28 11:59N 32°42' W 091°04'3 5.3
2017-Aug-28 11:27N 32°40' W 091°07'2 4.3
2017-Aug-28 11:00N 32°39' W 091°09'3 5.1
2017-Aug-28 10:30N 32°37' W 091°09'3 5.5
2017-Aug-28 10:00N 32°35' W 091°07'3 5.1
2017-Aug-28 09:30N 32°32' W 091°06'3 5.1
2017-Aug-28 09:00N 32°30' W 091°07'3 5.4
2017-Aug-28 08:30N 32°27' W 091°06'3 5.7
2017-Aug-28 08:00N 32°26' W 091°03'2 4.7
2017-Aug-28 07:30N 32°25' W 090°60'2 4.1
2017-Aug-28 07:00N 32°23' W 090°60'2 4.5
2017-Aug-28 06:30N 32°21' W 090°59'3 6.4
2017-Aug-28 06:00N 32°21' W 090°55'2 4.3
2017-Aug-28 05:30N 32°19' W 090°55'3 6.7
2017-Aug-28 05:00N 32°16' W 090°58'3 5.7
2017-Aug-28 04:30N 32°14' W 090°59'3 6.4
2017-Aug-28 04:00N 32°11' W 090°60'3 5.8
2017-Aug-28 03:30N 32°08' W 091°01'5 5.7
2017-Aug-28 02:42N 32°08' W 091°06'1 4.7
2017-Aug-28 02:30N 32°07' W 091°07'  
2017-Aug-25 18:59N 29°50' W 091°57'3 5.9
2017-Aug-25 18:30N 29°50' W 092°00'3 6.1
2017-Aug-25 18:00N 29°49' W 092°04'3 6.1
2017-Aug-25 17:30N 29°47' W 092°07'3 5.7
2017-Aug-25 17:00N 29°47' W 092°10'2 4.3
2017-Aug-25 16:30N 29°47' W 092°12'1 1.3
2017-Aug-25 16:00N 29°47' W 092°13'1 1.8
2017-Aug-25 15:30N 29°48' W 092°14'3 5.2
2017-Aug-25 15:00N 29°49' W 092°17'36 4.9
2017-Aug-25 07:33N 29°56' W 092°58'3 3.4
2017-Aug-25 06:41N 29°56' W 093°01'1 3.7
2017-Aug-25 06:21N 29°56' W 093°03'2 5.0
2017-Aug-25 06:00N 29°56' W 093°05'2 4.7
2017-Aug-25 05:30N 29°56' W 093°08'2 4.8
2017-Aug-25 05:00N 29°57' W 093°10'2 4.3
2017-Aug-25 04:30N 29°58' W 093°12'2 4.9
2017-Aug-25 04:00N 30°00' W 093°14'2 4.5
2017-Aug-25 03:30N 30°02' W 093°15'2 4.6
2017-Aug-25 03:00N 30°04' W 093°16'2 3.2
2017-Aug-25 02:30N 30°05' W 093°18'1 1.3
2017-Aug-25 02:00N 30°06' W 093°18'0 0.0
2017-Aug-25 01:30N 30°06' W 093°18'0 0.1
2017-Aug-25 01:00N 30°06' W 093°18'0 0.1
2017-Aug-25 00:30N 30°06' W 093°18'0 0.0
2017-Aug-25 00:00N 30°06' W 093°18'0 0.1
2017-Aug-24 23:30N 30°06' W 093°18'0 0.0
2017-Aug-24 23:00N 30°06' W 093°18'0 0.1
2017-Aug-24 22:30N 30°06' W 093°18'2 3.7
2017-Aug-24 22:00N 30°05' W 093°20'2 4.3
2017-Aug-24 21:30N 30°04' W 093°22'2 4.6
2017-Aug-24 21:00N 30°04' W 093°25'2 4.8
2017-Aug-24 20:30N 30°04' W 093°27'3 5.1
2017-Aug-24 20:00N 30°04' W 093°30'80 4.4
2017-Aug-24 01:55N 29°22' W 094°50'1 0.0
2017-Aug-22 09:42N 29°23' W 094°48'2 8.3
2017-Aug-22 09:29N 29°24' W 094°49'5 9.0
2017-Aug-22 08:54N 29°29' W 094°52'4 9.1
2017-Aug-22 08:30N 29°32' W 094°54'5 9.1
2017-Aug-22 08:00N 29°36' W 094°57'5 9.5
2017-Aug-22 07:30N 29°40' W 094°59'4 8.3
2017-Aug-22 06:59N 29°44' W 095°02'4 4.2
2017-Aug-22 06:02N 29°46' W 095°06'0 0.3
2017-Aug-22 06:00N 29°46' W 095°05'0 0.0
2017-Aug-22 03:53N 29°46' W 095°06'0 0.0
2017-Aug-22 03:30N 29°46' W 095°06'0 0.0
2017-Aug-22 02:58N 29°46' W 095°06'0 0.0
2017-Aug-22 02:24N 29°46' W 095°06'0 0.0
2017-Aug-22 01:25N 29°46' W 095°06'0 0.0
2017-Aug-22 01:00N 29°46' W 095°06'0 0.0
2017-Aug-22 00:25N 29°46' W 095°06'1 0.6
2017-Aug-21 23:21N 29°46' W 095°06'0 0.0
2017-Aug-21 22:50N 29°46' W 095°06'0 0.0
2017-Aug-21 20:19N 29°46' W 095°06'0 0.1
2017-Aug-21 20:00N 29°46' W 095°06'0 0.4
2017-Aug-21 18:53N 29°46' W 095°06'1 3.4
2017-Aug-21 18:28N 29°45' W 095°04'4 9.1
2017-Aug-21 18:00N 29°42' W 095°01'5 9.9
2017-Aug-21 17:30N 29°38' W 094°58'3 6.8
2017-Aug-21 17:00N 29°37' W 095°01'0 0.3
2017-Aug-21 16:30N 29°37' W 095°02'0 0.0
2017-Aug-21 16:00N 29°37' W 095°02'0 0.0
2017-Aug-21 15:30N 29°37' W 095°02'0 0.0
2017-Aug-21 15:00N 29°37' W 095°02'0 0.0
2017-Aug-21 14:30N 29°37' W 095°02'0 0.0
2017-Aug-21 14:00N 29°37' W 095°02'0 0.0
2017-Aug-21 13:30N 29°37' W 095°02'0 0.0
2017-Aug-21 13:00N 29°37' W 095°02'0 0.0
2017-Aug-21 12:30N 29°37' W 095°02'0 0.0
2017-Aug-21 12:00N 29°37' W 095°02'0 0.0
2017-Aug-21 11:30N 29°37' W 095°02'0 0.0
2017-Aug-21 11:00N 29°37' W 095°02'0 0.0
2017-Aug-21 10:30N 29°37' W 095°02'0 0.0
2017-Aug-21 10:00N 29°37' W 095°02'0 0.0
2017-Aug-21 09:30N 29°37' W 095°02'0 0.0
2017-Aug-21 09:00N 29°37' W 095°02'0 0.0
2017-Aug-21 08:30N 29°37' W 095°02'0 0.0
2017-Aug-21 08:00N 29°37' W 095°02'0 0.1
2017-Aug-21 07:30N 29°37' W 095°01'0 0.1
2017-Aug-21 07:00N 29°37' W 095°01'0 0.3
2017-Aug-21 06:30N 29°37' W 095°01'2 4.6
2017-Aug-21 06:00N 29°37' W 094°59'2 3.8
2017-Aug-21 05:30N 29°39' W 094°58'3 6.8
2017-Aug-21 05:00N 29°42' W 094°60'3 6.9
2017-Aug-21 04:30N 29°44' W 095°03'3 5.1
2017-Aug-21 03:54N 29°46' W 095°05'0 0.0
2017-Aug-21 03:27N 29°46' W 095°05'0 0.2
2017-Aug-21 03:00N 29°46' W 095°06'0 0.0
2017-Aug-21 02:30N 29°46' W 095°06'0 0.0
2017-Aug-21 02:00N 29°46' W 095°06'0 0.0
2017-Aug-21 01:30N 29°46' W 095°06'0 0.0
2017-Aug-21 01:00N 29°46' W 095°06'0 0.0
2017-Aug-21 00:30N 29°46' W 095°06'0 0.0
2017-Aug-21 00:00N 29°46' W 095°06'0 0.0
2017-Aug-20 23:30N 29°46' W 095°06'0 0.0
2017-Aug-20 23:00N 29°46' W 095°06'0 0.0
2017-Aug-20 22:30N 29°46' W 095°06'0 0.0
2017-Aug-20 22:00N 29°46' W 095°06'0 0.0
2017-Aug-20 21:26N 29°46' W 095°06'0 0.0
2017-Aug-20 21:00N 29°46' W 095°06'0 0.0
2017-Aug-20 20:30N 29°46' W 095°06'0 0.0
2017-Aug-20 19:59N 29°46' W 095°06'0 0.0
2017-Aug-20 19:30N 29°46' W 095°06'1 0.3
2017-Aug-20 17:14N 29°46' W 095°06'1 0.6
2017-Aug-20 15:55N 29°46' W 095°05'1 1.5
2017-Aug-20 15:26N 29°46' W 095°05'3 7.1
2017-Aug-20 14:58N 29°44' W 095°02'3 7.2
2017-Aug-20 14:30N 29°41' W 094°59'4 8.2
2017-Aug-20 14:00N 29°37' W 094°58'4 8.3
2017-Aug-20 13:30N 29°34' W 094°55'13 2.1
2017-Aug-20 07:09N 29°22' W 094°49'1 3.7
2017-Aug-20 06:54N 29°22' W 094°50'31 1.4
2017-Aug-19 08:20N 29°38' W 094°19'7 5.1
2017-Aug-19 07:02N 29°41' W 094°13'7 4.7
2017-Aug-19 05:32N 29°44' W 094°06'0 4.9
2017-Aug-19 05:30N 29°44' W 094°05'3 4.8
2017-Aug-19 04:57N 29°46' W 094°03'2 4.7
2017-Aug-19 04:25N 29°47' W 094°01'22 4.9
2017-Aug-18 23:57N 30°03' W 093°43'3 5.8
2017-Aug-18 23:30N 30°04' W 093°40'3 5.9
2017-Aug-18 23:00N 30°04' W 093°37'3 5.3
2017-Aug-18 22:30N 30°04' W 093°34'2 3.9
2017-Aug-18 22:00N 30°04' W 093°31'2 3.0
2017-Aug-18 21:30N 30°04' W 093°30'2 4.8
2017-Aug-18 21:00N 30°04' W 093°27'2 4.8
2017-Aug-18 20:30N 30°04' W 093°24'3 5.2
2017-Aug-18 20:00N 30°04' W 093°21'2 4.8
2017-Aug-18 19:30N 30°06' W 093°19'1 2.1
2017-Aug-18 19:00N 30°06' W 093°18'1 2.5
2017-Aug-18 18:30N 30°05' W 093°17'3 5.1
2017-Aug-18 18:00N 30°03' W 093°16'2 5.0
2017-Aug-18 17:30N 30°01' W 093°14'3 5.4
2017-Aug-18 17:00N 29°59' W 093°12'4 5.5
2017-Aug-18 16:20N 29°56' W 093°09'  

Dump ship's entire track history